createdAt,value
2024-03-22T20:50:55.520Z,35.33
2024-03-22T20:51:30.440Z,61.00
2024-03-22T20:52:05.139Z,77.00
2024-03-22T20:52:40.436Z,88.00
2024-03-22T20:53:15.421Z,94.00
2024-03-22T20:53:50.258Z,97.00
2024-03-22T20:54:25.024Z,98.00
2024-03-22T20:54:59.846Z,100.33
2024-03-22T20:55:34.939Z,99.00
2024-03-22T20:56:09.791Z,96.67
2024-03-22T20:56:45.375Z,94.33
2024-03-22T20:57:20.903Z,91.33
2024-03-22T20:57:55.907Z,98.33
2024-03-22T20:58:30.677Z,94.67
2024-03-22T20:59:05.599Z,104.33
2024-03-22T20:59:41.364Z,101.67
2024-03-22T21:00:16.606Z,99.33
2024-03-22T21:00:54.265Z,99.67
2024-03-22T21:01:28.913Z,100.67
2024-03-22T21:02:03.776Z,103.33
2024-03-22T21:02:38.664Z,97.00
2024-03-22T21:03:14.961Z,99.00
2024-03-22T21:03:48.585Z,97.33
2024-03-22T21:04:20.989Z,100.67
2024-03-22T21:04:54.113Z,106.00
2024-03-22T21:05:26.441Z,113.00
2024-03-22T21:05:58.744Z,110.33
2024-03-22T21:06:31.241Z,105.67
2024-03-22T21:07:03.339Z,102.33
2024-03-22T21:07:35.934Z,102.67
2024-03-22T21:08:08.407Z,100.67
2024-03-22T21:08:40.882Z,102.00
2024-03-22T21:09:13.257Z,102.33
2024-03-22T21:09:45.666Z,101.00
2024-03-22T21:10:18.527Z,101.67
2024-03-22T21:10:50.635Z,101.00
2024-03-22T21:11:22.956Z,101.00
2024-03-22T21:11:55.027Z,100.33
2024-03-22T21:12:27.104Z,101.67
2024-03-22T21:12:59.322Z,102.00
2024-03-22T21:13:31.307Z,102.33
2024-03-22T21:14:03.403Z,101.33
2024-03-22T21:14:35.359Z,101.00
2024-03-22T21:15:07.428Z,101.00
2024-03-22T21:15:39.478Z,101.00
2024-03-22T21:16:11.469Z,100.00
2024-03-22T21:16:43.715Z,99.00
2024-03-22T21:17:16.300Z,99.67
2024-03-22T21:17:48.601Z,100.67
2024-03-22T21:18:20.766Z,102.67
2024-03-22T21:18:55.823Z,103.00
2024-03-22T21:19:30.634Z,103.00
2024-03-22T21:20:07.350Z,103.33
2024-03-22T21:20:42.817Z,103.33
2024-03-22T21:21:18.299Z,103.00
2024-03-22T21:21:52.402Z,103.67
2024-03-22T21:22:24.486Z,103.33
2024-03-22T21:22:56.951Z,102.67
2024-03-22T21:23:28.971Z,102.00
2024-03-22T21:24:00.927Z,101.33
2024-03-22T21:24:32.944Z,100.00
2024-03-22T21:25:05.206Z,99.67
2024-03-22T21:25:37.330Z,99.00
2024-03-22T21:26:09.429Z,98.33
2024-03-22T21:26:41.395Z,98.00
2024-03-22T21:27:13.913Z,98.00
2024-03-22T21:27:46.028Z,98.00
2024-03-22T21:28:18.112Z,98.00
2024-03-22T21:28:57.999Z,98.00
2024-03-22T21:29:31.232Z,98.67
2024-03-22T21:30:03.237Z,99.00
2024-03-22T21:30:35.195Z,99.00
2024-03-22T21:31:07.108Z,99.00
2024-03-22T21:31:39.137Z,100.00
2024-03-22T21:32:11.132Z,101.00
2024-03-22T21:32:43.246Z,101.33
2024-03-22T21:33:15.565Z,102.00
2024-03-22T21:33:47.639Z,103.33
2024-03-22T21:34:19.732Z,103.00
2024-03-22T21:34:51.782Z,104.67
2024-03-22T21:35:23.856Z,107.67
2024-03-22T21:35:56.000Z,107.67
2024-03-22T21:36:27.981Z,106.67
2024-03-22T21:37:02.727Z,104.00
2024-03-22T21:37:37.416Z,102.33
2024-03-22T21:38:12.131Z,107.00
2024-03-22T21:38:47.046Z,108.33
2024-03-22T21:39:21.835Z,116.33
2024-03-22T21:39:56.593Z,127.67
2024-03-22T21:40:31.392Z,133.33
2024-03-22T21:41:06.118Z,137.33
2024-03-22T21:41:40.878Z,140.67
2024-03-22T21:42:15.680Z,150.33
2024-03-22T21:42:50.368Z,158.00
2024-03-22T21:43:25.135Z,162.67
2024-03-22T21:43:59.863Z,173.33
2024-03-22T21:44:34.601Z,177.33
2024-03-22T21:45:09.646Z,181.00
2024-03-22T21:45:44.492Z,182.67
2024-03-22T21:46:19.215Z,184.00
2024-03-22T21:46:54.943Z,188.33
2024-03-22T21:47:29.733Z,195.00
2024-03-22T21:48:04.551Z,199.00
2024-03-22T21:48:39.452Z,201.33
2024-03-22T21:49:14.302Z,205.00
2024-03-22T21:49:49.104Z,211.33
2024-03-22T21:50:23.964Z,216.33
2024-03-22T21:50:58.653Z,216.33
2024-03-22T21:51:33.396Z,218.33
2024-03-22T21:52:08.251Z,218.00
2024-03-22T21:52:43.076Z,219.33
2024-03-22T21:53:17.808Z,227.00
2024-03-22T21:53:52.568Z,222.00
2024-03-22T21:54:27.338Z,208.67
2024-03-22T21:55:02.070Z,202.33
2024-03-22T21:55:37.168Z,200.00
2024-03-22T21:56:11.855Z,198.00
2024-03-22T21:56:46.800Z,197.67
2024-03-22T21:57:21.529Z,196.00
2024-03-22T21:57:56.588Z,191.67
2024-03-22T21:58:31.290Z,176.33
2024-03-22T21:59:06.138Z,163.00
2024-03-22T21:59:41.022Z,160.00
2024-03-22T22:00:15.773Z,155.67
2024-03-22T22:00:50.711Z,141.67
2024-03-22T22:01:25.398Z,128.33
2024-03-22T22:02:00.362Z,125.00
2024-03-22T22:02:35.386Z,128.00
2024-03-22T22:03:10.160Z,116.67
2024-03-22T22:03:44.948Z,108.33
2024-03-22T22:04:19.706Z,106.33
2024-03-22T22:04:54.538Z,100.00
2024-03-22T22:05:29.304Z,98.00
2024-03-22T22:06:04.069Z,95.67
2024-03-22T22:06:38.846Z,84.33
2024-03-22T22:07:13.893Z,80.00
2024-03-22T22:07:48.712Z,73.67
2024-03-22T22:08:23.452Z,71.33
2024-03-22T22:08:58.502Z,70.00
2024-03-22T22:09:33.178Z,75.67
2024-03-22T22:10:07.870Z,83.00
2024-03-22T22:10:42.811Z,87.33
2024-03-22T22:11:17.581Z,88.33
2024-03-22T22:11:51.011Z,88.00
2024-03-22T22:12:22.969Z,89.67
2024-03-22T22:12:54.986Z,87.67
2024-03-22T22:13:26.972Z,88.33
2024-03-22T22:13:59.090Z,83.00
2024-03-22T22:14:31.070Z,87.67
2024-03-22T22:15:03.124Z,90.00
2024-03-22T22:15:36.103Z,89.00
2024-03-22T22:16:08.187Z,87.67
2024-03-22T22:16:40.318Z,89.00
2024-03-22T22:17:12.304Z,90.00
2024-03-22T22:17:44.270Z,91.33
2024-03-22T22:18:16.271Z,92.33
2024-03-22T22:18:48.244Z,93.33
2024-03-22T22:19:20.298Z,95.00
2024-03-22T22:19:52.307Z,98.33
2024-03-22T22:20:24.290Z,106.00
2024-03-22T22:20:56.317Z,107.00
2024-03-22T22:21:28.279Z,107.00
2024-03-22T22:22:00.259Z,107.67
2024-03-22T22:22:32.272Z,109.33
2024-03-22T22:23:04.397Z,110.00
2024-03-22T22:23:36.424Z,110.00
2024-03-22T22:24:10.416Z,109.33
2024-03-22T22:24:43.981Z,108.67
2024-03-22T22:25:15.979Z,107.67
2024-03-22T22:25:47.954Z,106.00
2024-03-22T22:26:20.004Z,101.33
2024-03-22T22:26:54.899Z,90.67
2024-03-22T22:27:29.684Z,81.00
2024-03-22T22:28:04.466Z,68.33
2024-03-22T22:28:39.272Z,61.33
2024-03-22T22:29:13.963Z,59.33
2024-03-22T22:29:48.683Z,62.33
2024-03-22T22:30:23.403Z,64.33
2024-03-22T22:30:58.134Z,65.33
2024-03-22T22:31:32.881Z,67.33
2024-03-22T22:32:07.693Z,65.00
2024-03-22T22:32:42.659Z,58.67
2024-03-22T22:33:17.454Z,49.67
2024-03-22T22:33:52.189Z,49.67
2024-03-22T22:34:26.918Z,55.67
2024-03-22T22:35:01.659Z,61.33
2024-03-22T22:35:36.443Z,63.33
2024-03-22T22:36:11.176Z,66.00
2024-03-22T22:36:46.324Z,77.33
2024-03-22T22:37:23.714Z,106.33
2024-03-22T22:37:55.873Z,119.33
2024-03-22T22:38:27.955Z,117.00
2024-03-22T22:38:59.940Z,114.33
2024-03-22T22:39:31.934Z,119.00
2024-03-22T22:40:04.100Z,127.33
2024-03-22T22:40:36.118Z,112.00
2024-03-22T22:41:08.153Z,104.67
2024-03-22T22:41:40.194Z,95.67
2024-03-22T22:42:12.162Z,88.00
2024-03-22T22:42:44.174Z,82.00
2024-03-22T22:43:16.543Z,76.67
2024-03-22T22:43:48.565Z,72.33
2024-03-22T22:44:20.537Z,67.67
2024-03-22T22:44:52.725Z,66.33
2024-03-22T22:45:24.712Z,65.67
2024-03-22T22:45:56.730Z,65.00
2024-03-22T22:46:28.733Z,66.67
2024-03-22T22:47:00.775Z,67.67
2024-03-22T22:47:32.851Z,66.33
2024-03-22T22:48:05.048Z,66.33
2024-03-22T22:48:37.061Z,65.67
2024-03-22T22:49:09.139Z,62.00
2024-03-22T22:49:41.144Z,60.33
2024-03-22T22:50:13.170Z,56.67
2024-03-22T22:50:45.247Z,54.33
2024-03-22T22:51:17.241Z,52.00
2024-03-22T22:51:49.256Z,52.00
2024-03-22T22:52:21.234Z,53.33
2024-03-22T22:52:55.972Z,54.00
2024-03-22T22:53:30.736Z,55.67
2024-03-22T22:54:05.533Z,56.00
2024-03-22T22:54:40.486Z,56.33
2024-03-22T22:55:15.252Z,57.33
2024-03-22T22:55:50.030Z,58.00
2024-03-22T22:56:24.840Z,58.00
2024-03-22T22:56:59.590Z,58.67
2024-03-22T22:57:34.304Z,59.00
2024-03-22T22:58:09.160Z,59.00
2024-03-22T22:58:44.008Z,59.67
2024-03-22T22:59:18.674Z,60.00
2024-03-22T22:59:53.406Z,60.00
2024-03-22T23:00:30.410Z,60.00
2024-03-22T23:01:07.273Z,60.33
2024-03-22T23:01:42.007Z,61.67
2024-03-22T23:02:17.100Z,62.33
2024-03-22T23:02:51.832Z,63.67
2024-03-22T23:03:26.495Z,64.33
2024-03-22T23:04:01.645Z,66.00
2024-03-22T23:04:36.368Z,69.33
2024-03-22T23:05:11.066Z,72.33
2024-03-22T23:05:45.969Z,72.00
2024-03-22T23:06:20.750Z,73.00
2024-03-22T23:06:55.640Z,74.00
2024-03-22T23:07:30.354Z,75.00
2024-03-22T23:08:05.307Z,75.33
2024-03-22T23:08:39.979Z,77.67
2024-03-22T23:09:14.745Z,78.00
2024-03-22T23:09:49.444Z,77.00
2024-03-22T23:10:27.059Z,77.00
2024-03-22T23:10:59.153Z,76.67
2024-03-22T23:11:31.321Z,75.67
2024-03-22T23:12:03.364Z,75.00
2024-03-22T23:12:35.616Z,74.67
2024-03-22T23:13:07.654Z,74.33
2024-03-22T23:13:39.703Z,74.00
2024-03-22T23:14:11.805Z,73.67
2024-03-22T23:14:43.905Z,73.67
2024-03-22T23:15:15.936Z,74.00
2024-03-22T23:15:47.904Z,73.33
2024-03-22T23:16:19.841Z,73.00
2024-03-22T23:16:51.898Z,72.33
2024-03-22T23:17:23.869Z,72.00
2024-03-22T23:17:55.827Z,72.00
2024-03-22T23:18:27.792Z,72.00
2024-03-22T23:18:59.719Z,73.00
2024-03-22T23:19:31.715Z,75.00
2024-03-22T23:20:03.673Z,77.00
2024-03-22T23:20:36.002Z,78.00
2024-03-22T23:21:08.188Z,78.00
2024-03-22T23:21:40.265Z,78.00
2024-03-22T23:22:12.323Z,78.00
2024-03-22T23:22:44.589Z,78.33
2024-03-22T23:23:16.599Z,79.00
2024-03-22T23:23:48.517Z,80.00
2024-03-22T23:24:20.548Z,80.00
2024-03-22T23:24:52.506Z,81.00
2024-03-22T23:25:28.749Z,84.67
2024-03-22T23:26:03.512Z,85.67
2024-03-22T23:26:38.238Z,86.33
2024-03-22T23:27:12.957Z,87.00
2024-03-22T23:27:47.736Z,88.00
2024-03-22T23:28:22.529Z,89.33
2024-03-22T23:28:57.410Z,91.00
2024-03-22T23:29:32.091Z,91.00
2024-03-22T23:30:06.759Z,90.00
2024-03-22T23:30:41.718Z,91.00
2024-03-22T23:31:16.589Z,91.33
2024-03-22T23:31:51.283Z,91.00
2024-03-22T23:32:26.065Z,90.00
2024-03-22T23:33:00.974Z,90.00
2024-03-22T23:33:35.756Z,90.00
2024-03-22T23:34:10.517Z,89.67
2024-03-22T23:34:45.243Z,87.67
2024-03-22T23:35:20.167Z,87.00
2024-03-22T23:35:54.838Z,87.00
2024-03-22T23:36:29.856Z,86.33
2024-03-22T23:37:04.682Z,84.67
2024-03-22T23:37:39.805Z,81.00
2024-03-22T23:38:14.521Z,81.67
2024-03-22T23:38:49.269Z,85.33
2024-03-22T23:39:24.028Z,91.00
2024-03-22T23:39:58.819Z,93.33
2024-03-22T23:40:33.511Z,92.33
2024-03-22T23:41:08.302Z,85.33
2024-03-22T23:41:43.037Z,76.33
2024-03-22T23:42:17.804Z,73.67
2024-03-22T23:42:52.553Z,71.33
2024-03-22T23:43:27.279Z,70.67
2024-03-22T23:44:02.114Z,71.33
2024-03-22T23:44:36.796Z,72.00
2024-03-22T23:45:11.549Z,71.00
2024-03-22T23:45:46.306Z,70.67
2024-03-22T23:46:21.136Z,71.00
2024-03-22T23:46:55.954Z,72.33
2024-03-22T23:47:31.067Z,73.00
2024-03-22T23:48:05.839Z,73.00
2024-03-22T23:48:40.597Z,72.67
2024-03-22T23:49:15.325Z,72.67
2024-03-22T23:49:50.080Z,71.33
2024-03-22T23:50:24.853Z,68.00
2024-03-22T23:50:59.715Z,62.67
2024-03-22T23:51:34.413Z,59.00
2024-03-22T23:52:09.149Z,54.33
2024-03-22T23:52:44.134Z,47.00
2024-03-22T23:53:18.839Z,42.67
2024-03-22T23:53:53.626Z,40.00
2024-03-22T23:54:28.769Z,40.33
2024-03-22T23:55:03.485Z,39.67
2024-03-22T23:55:38.192Z,38.67
2024-03-22T23:56:12.991Z,38.00
2024-03-22T23:56:55.248Z,39.33
2024-03-22T23:57:33.339Z,36.00
2024-03-22T23:58:08.093Z,35.33
2024-03-22T23:58:42.780Z,36.00
2024-03-22T23:59:17.571Z,36.00
2024-03-22T23:59:52.431Z,33.00
